Cape Blue Mine Airport


Codes: FAWT/
Name: Cape Blue Mine Airport
City: Westerberg
Country: South Africa
Elevation: 3050 ft.

Photos at Cape Blue Mine Airport


   Photos courtesy of SpottingLog. You can add your own sightings and photos by signing up for a free trial today.



No photos found.

Weather at Cape Blue Mine Airport


Time (UTC)DescriptionTempratureWindCloud coverageVisibilityPressureHumidity
16-Jun-2024 00:00Few Clouds11°C4 mph, NE16%10000m1023hPa37%
16-Jun-2024 03:00Few Clouds11°C4 mph, NE22%10000m1023hPa38%
16-Jun-2024 06:00Scattered Clouds11°C4 mph, NE42%10000m1023hPa36%
16-Jun-2024 09:00Overcast Clouds20°C7 mph, NE96%10000m1022hPa21%
16-Jun-2024 12:00Overcast Clouds24°C11 mph, NW91%10000m1019hPa15%
16-Jun-2024 15:00Broken Clouds22°C9 mph, N63%10000m1018hPa16%
16-Jun-2024 18:00Scattered Clouds15°C4 mph, N48%10000m1020hPa25%
16-Jun-2024 21:00Clear Sky14°C7 mph, NE2%10000m1020hPa27%
17-Jun-2024 00:00Clear Sky12°C7 mph, NE1%10000m1020hPa30%
17-Jun-2024 03:00Clear Sky11°C7 mph, NE0%10000m1018hPa34%
17-Jun-2024 06:00Clear Sky11°C7 mph, NE0%10000m1019hPa39%
17-Jun-2024 09:00Clear Sky21°C27 mph, N0%10000m1017hPa30%
17-Jun-2024 12:00Clear Sky24°C31 mph, NW0%10000m1013hPa21%
17-Jun-2024 15:00Clear Sky23°C25 mph, NW0%10000m1012hPa15%
17-Jun-2024 18:00Clear Sky15°C11 mph, SW0%10000m1016hPa25%
17-Jun-2024 21:00Clear Sky10°C4 mph, SW0%10000m1018hPa42%
18-Jun-2024 00:00Clear Sky8°C2 mph, NW0%10000m1019hPa60%
18-Jun-2024 03:00Clear Sky7°C2 mph, NW0%10000m1019hPa71%
18-Jun-2024 06:00Clear Sky7°C2 mph, SW0%10000m1021hPa74%
18-Jun-2024 09:00Clear Sky15°C4 mph, NW0%10000m1021hPa44%
18-Jun-2024 12:00Clear Sky19°C9 mph, NW0%10000m1017hPa26%
18-Jun-2024 15:00Clear Sky18°C7 mph, NW0%10000m1017hPa26%
18-Jun-2024 18:00Clear Sky12°C4 mph, W0%10000m1019hPa43%
18-Jun-2024 21:00Clear Sky9°C2 mph, S0%10000m1020hPa57%
19-Jun-2024 00:00Clear Sky8°C2 mph, N0%10000m1019hPa65%
19-Jun-2024 03:00Clear Sky7°C2 mph, W0%10000m1019hPa65%
19-Jun-2024 06:00Clear Sky8°C0 mph, SE0%10000m1021hPa55%
19-Jun-2024 09:00Clear Sky16°C2 mph, S0%10000m1021hPa30%
19-Jun-2024 12:00Clear Sky20°C0 mph, W0%10000m1018hPa20%
19-Jun-2024 15:00Clear Sky18°C2 mph, SE0%10000m1017hPa22%
19-Jun-2024 18:00Clear Sky14°C7 mph, SE0%10000m1019hPa27%
19-Jun-2024 21:00Clear Sky11°C7 mph, E0%10000m1020hPa34%
20-Jun-2024 00:00Clear Sky10°C7 mph, E0%10000m1019hPa35%
20-Jun-2024 03:00Clear Sky9°C4 mph, E0%10000m1018hPa35%
20-Jun-2024 06:00Clear Sky10°C4 mph, NE5%10000m1019hPa32%
20-Jun-2024 09:00Broken Clouds20°C16 mph, N61%10000m1018hPa17%
20-Jun-2024 12:00Broken Clouds26°C27 mph, NW64%10000m1013hPa15%
20-Jun-2024 15:00Broken Clouds25°C20 mph, NW61%10000m1012hPa14%
20-Jun-2024 18:00Scattered Clouds16°C7 mph, N49%10000m1014hPa20%
20-Jun-2024 21:00Clear Sky14°C7 mph, N2%10000m1015hPa25%